<?xml version="1.0" encoding="UTF-8" standalone="no" ?>
<gpx xmlns="http://www.topografix.com/GPX/1/1" xmlns:xsi="http://www.w3.org/2001/XMLSchema-instance" xsi:schemaLocation="http://www.topografix.com/GPX/1/1 http://www.topografix.com/GPX/1/1/gpx.xsd" version="1.1" creator="VisuGPX - https://www.visugpx.com">
  <metadata>
    <name>Retournemer Cascade Charlemagne</name>
  </metadata>
  <wpt lat="48.05279" lon="6.98901">
    <ele>822</ele>
    <name><![CDATA[Parking]]></name>
  </wpt>
  <wpt lat="48.0505" lon="7.00304">
    <ele>1084</ele>
    <name><![CDATA[D34d. Monter en face, le long du téléski]]></name>
  </wpt>
  <wpt lat="48.04964" lon="7.00692">
    <ele>1172</ele>
    <name><![CDATA[Chemin des Mulets]]></name>
  </wpt>
  <wpt lat="48.04341" lon="7.0214">
    <ele>1032</ele>
    <name><![CDATA[Frankental]]></name>
  </wpt>
  <wpt lat="48.04918" lon="7.01165">
    <ele>1252</ele>
    <name><![CDATA[Prendre à gauche dans la direction d'un pylône EDF]]></name>
  </wpt>
  <wpt lat="48.0528" lon="6.98902">
    <ele>822</ele>
    <name><![CDATA[Parking]]></name>
  </wpt>
  <trk>
    <name><![CDATA[Retournemer Cascade Charlemagne]]></name>
    <trkseg>
      <trkpt lat="48.05279" lon="6.98901">
        <ele>822</ele>
        <time>2021-05-20T17:50:07+02:00</time>
      </trkpt>
      <trkpt lat="48.05287" lon="6.98954">
        <ele>829</ele>
        <time>2021-05-20T17:50:12+02:00</time>
      </trkpt>
      <trkpt lat="48.05308" lon="6.99014">
        <ele>841</ele>
        <time>2021-05-20T17:50:17+02:00</time>
      </trkpt>
      <trkpt lat="48.05318" lon="6.9908">
        <ele>856</ele>
        <time>2021-05-20T17:50:22+02:00</time>
      </trkpt>
      <trkpt lat="48.0533" lon="6.99089">
        <ele>857</ele>
        <time>2021-05-20T17:50:27+02:00</time>
      </trkpt>
      <trkpt lat="48.0534" lon="6.99062">
        <ele>852</ele>
        <time>2021-05-20T17:50:32+02:00</time>
      </trkpt>
      <trkpt lat="48.05358" lon="6.99063">
        <ele>854</ele>
        <time>2021-05-20T17:50:37+02:00</time>
      </trkpt>
      <trkpt lat="48.05351" lon="6.9918">
        <ele>876</ele>
        <time>2021-05-20T17:50:42+02:00</time>
      </trkpt>
      <trkpt lat="48.05375" lon="6.99282">
        <ele>898</ele>
        <time>2021-05-20T17:50:47+02:00</time>
      </trkpt>
      <trkpt lat="48.0534" lon="6.99312">
        <ele>900</ele>
        <time>2021-05-20T17:50:52+02:00</time>
      </trkpt>
      <trkpt lat="48.05305" lon="6.99375">
        <ele>916</ele>
        <time>2021-05-20T17:50:57+02:00</time>
      </trkpt>
      <trkpt lat="48.05286" lon="6.99438">
        <ele>927</ele>
        <time>2021-05-20T17:51:02+02:00</time>
      </trkpt>
      <trkpt lat="48.05251" lon="6.99496">
        <ele>930</ele>
        <time>2021-05-20T17:51:07+02:00</time>
      </trkpt>
      <trkpt lat="48.05212" lon="6.99551">
        <ele>950</ele>
        <time>2021-05-20T17:51:12+02:00</time>
      </trkpt>
      <trkpt lat="48.05156" lon="6.99576">
        <ele>958</ele>
        <time>2021-05-20T17:51:17+02:00</time>
      </trkpt>
      <trkpt lat="48.05142" lon="6.99571">
        <ele>961</ele>
        <time>2021-05-20T17:51:22+02:00</time>
      </trkpt>
      <trkpt lat="48.05116" lon="6.99527">
        <ele>964</ele>
        <time>2021-05-20T17:51:27+02:00</time>
      </trkpt>
      <trkpt lat="48.05093" lon="6.99551">
        <ele>972</ele>
        <time>2021-05-20T17:51:32+02:00</time>
      </trkpt>
      <trkpt lat="48.05076" lon="6.99574">
        <ele>977</ele>
        <time>2021-05-20T17:51:37+02:00</time>
      </trkpt>
      <trkpt lat="48.0506" lon="6.99634">
        <ele>984</ele>
        <time>2021-05-20T17:51:42+02:00</time>
      </trkpt>
      <trkpt lat="48.05047" lon="6.99645">
        <ele>985</ele>
        <time>2021-05-20T17:51:47+02:00</time>
      </trkpt>
      <trkpt lat="48.05048" lon="6.99659">
        <ele>987</ele>
        <time>2021-05-20T17:51:52+02:00</time>
      </trkpt>
      <trkpt lat="48.05064" lon="6.99668">
        <ele>989</ele>
        <time>2021-05-20T17:51:57+02:00</time>
      </trkpt>
      <trkpt lat="48.0505" lon="6.99746">
        <ele>1003</ele>
        <time>2021-05-20T17:52:02+02:00</time>
      </trkpt>
      <trkpt lat="48.05091" lon="6.99784">
        <ele>1012</ele>
        <time>2021-05-20T17:52:07+02:00</time>
      </trkpt>
      <trkpt lat="48.05071" lon="6.9982">
        <ele>1020</ele>
        <time>2021-05-20T17:52:12+02:00</time>
      </trkpt>
      <trkpt lat="48.05066" lon="6.99867">
        <ele>1029</ele>
        <time>2021-05-20T17:52:17+02:00</time>
      </trkpt>
      <trkpt lat="48.05034" lon="6.99914">
        <ele>1038</ele>
        <time>2021-05-20T17:52:22+02:00</time>
      </trkpt>
      <trkpt lat="48.05034" lon="7.00026">
        <ele>1054</ele>
        <time>2021-05-20T17:52:27+02:00</time>
      </trkpt>
      <trkpt lat="48.0504" lon="7.00103">
        <ele>1062</ele>
        <time>2021-05-20T17:52:32+02:00</time>
      </trkpt>
      <trkpt lat="48.05047" lon="7.00138">
        <ele>1064</ele>
        <time>2021-05-20T17:52:37+02:00</time>
      </trkpt>
      <trkpt lat="48.05038" lon="7.00158">
        <ele>1065</ele>
        <time>2021-05-20T17:52:42+02:00</time>
      </trkpt>
      <trkpt lat="48.05039" lon="7.0021">
        <ele>1070</ele>
        <time>2021-05-20T17:52:47+02:00</time>
      </trkpt>
      <trkpt lat="48.0505" lon="7.00304">
        <ele>1084</ele>
        <time>2021-05-20T17:52:52+02:00</time>
      </trkpt>
      <trkpt lat="48.05029" lon="7.00341">
        <ele>1090</ele>
        <time>2021-05-20T17:52:57+02:00</time>
      </trkpt>
      <trkpt lat="48.0502" lon="7.00387">
        <ele>1098</ele>
        <time>2021-05-20T17:53:02+02:00</time>
      </trkpt>
      <trkpt lat="48.05" lon="7.0047">
        <ele>1116</ele>
        <time>2021-05-20T17:53:07+02:00</time>
      </trkpt>
      <trkpt lat="48.04991" lon="7.00529">
        <ele>1130</ele>
        <time>2021-05-20T17:53:12+02:00</time>
      </trkpt>
      <trkpt lat="48.04984" lon="7.00584">
        <ele>1144</ele>
        <time>2021-05-20T17:53:17+02:00</time>
      </trkpt>
      <trkpt lat="48.04964" lon="7.00692">
        <ele>1172</ele>
        <time>2021-05-20T17:53:22+02:00</time>
      </trkpt>
      <trkpt lat="48.04885" lon="7.00697">
        <ele>1184</ele>
        <time>2021-05-20T17:53:27+02:00</time>
      </trkpt>
      <trkpt lat="48.048" lon="7.00678">
        <ele>1195</ele>
        <time>2021-05-20T17:53:32+02:00</time>
      </trkpt>
      <trkpt lat="48.04716" lon="7.00686">
        <ele>1207</ele>
        <time>2021-05-20T17:53:37+02:00</time>
      </trkpt>
      <trkpt lat="48.04635" lon="7.00698">
        <ele>1217</ele>
        <time>2021-05-20T17:53:42+02:00</time>
      </trkpt>
      <trkpt lat="48.04564" lon="7.00658">
        <ele>1219</ele>
        <time>2021-05-20T17:53:47+02:00</time>
      </trkpt>
      <trkpt lat="48.04488" lon="7.00637">
        <ele>1231</ele>
        <time>2021-05-20T17:53:52+02:00</time>
      </trkpt>
      <trkpt lat="48.04441" lon="7.00602">
        <ele>1233</ele>
        <time>2021-05-20T17:53:57+02:00</time>
      </trkpt>
      <trkpt lat="48.04415" lon="7.00595">
        <ele>1237</ele>
        <time>2021-05-20T17:54:02+02:00</time>
      </trkpt>
      <trkpt lat="48.04378" lon="7.00567">
        <ele>1239</ele>
        <time>2021-05-20T17:54:07+02:00</time>
      </trkpt>
      <trkpt lat="48.04342" lon="7.00534">
        <ele>1241</ele>
        <time>2021-05-20T17:54:12+02:00</time>
      </trkpt>
      <trkpt lat="48.04286" lon="7.00512">
        <ele>1245</ele>
        <time>2021-05-20T17:54:17+02:00</time>
      </trkpt>
      <trkpt lat="48.04235" lon="7.00537">
        <ele>1251</ele>
        <time>2021-05-20T17:54:22+02:00</time>
      </trkpt>
      <trkpt lat="48.04185" lon="7.00602">
        <ele>1257</ele>
        <time>2021-05-20T17:54:27+02:00</time>
      </trkpt>
      <trkpt lat="48.04141" lon="7.00691">
        <ele>1263</ele>
        <time>2021-05-20T17:54:32+02:00</time>
      </trkpt>
      <trkpt lat="48.04117" lon="7.0079">
        <ele>1270</ele>
        <time>2021-05-20T17:54:37+02:00</time>
      </trkpt>
      <trkpt lat="48.0411" lon="7.00914">
        <ele>1279</ele>
        <time>2021-05-20T17:54:42+02:00</time>
      </trkpt>
      <trkpt lat="48.0412" lon="7.01003">
        <ele>1286</ele>
        <time>2021-05-20T17:54:47+02:00</time>
      </trkpt>
      <trkpt lat="48.04139" lon="7.0109">
        <ele>1293</ele>
        <time>2021-05-20T17:54:52+02:00</time>
      </trkpt>
      <trkpt lat="48.04097" lon="7.01154">
        <ele>1300</ele>
        <time>2021-05-20T17:54:57+02:00</time>
      </trkpt>
      <trkpt lat="48.04057" lon="7.01232">
        <ele>1311</ele>
        <time>2021-05-20T17:55:02+02:00</time>
      </trkpt>
      <trkpt lat="48.04005" lon="7.01318">
        <ele>1323</ele>
        <time>2021-05-20T17:55:07+02:00</time>
      </trkpt>
      <trkpt lat="48.03939" lon="7.01385">
        <ele>1331</ele>
        <time>2021-05-20T17:55:12+02:00</time>
      </trkpt>
      <trkpt lat="48.03884" lon="7.01436">
        <ele>1338</ele>
        <time>2021-05-20T17:55:17+02:00</time>
      </trkpt>
      <trkpt lat="48.0381" lon="7.01517">
        <ele>1347</ele>
        <time>2021-05-20T17:55:22+02:00</time>
      </trkpt>
      <trkpt lat="48.03805" lon="7.01584">
        <ele>1350</ele>
        <time>2021-05-20T17:55:27+02:00</time>
      </trkpt>
      <trkpt lat="48.03763" lon="7.01625">
        <ele>1347</ele>
        <time>2021-05-20T17:55:32+02:00</time>
      </trkpt>
      <trkpt lat="48.03744" lon="7.01587">
        <ele>1345</ele>
        <time>2021-05-20T17:55:37+02:00</time>
      </trkpt>
      <trkpt lat="48.03736" lon="7.01547">
        <ele>1337</ele>
        <time>2021-05-20T17:55:42+02:00</time>
      </trkpt>
      <trkpt lat="48.03726" lon="7.016">
        <ele>1335</ele>
        <time>2021-05-20T17:55:47+02:00</time>
      </trkpt>
      <trkpt lat="48.03725" lon="7.01695">
        <ele>1336</ele>
        <time>2021-05-20T17:55:52+02:00</time>
      </trkpt>
      <trkpt lat="48.03749" lon="7.01717">
        <ele>1344</ele>
        <time>2021-05-20T17:55:57+02:00</time>
      </trkpt>
      <trkpt lat="48.03736" lon="7.0185">
        <ele>1327</ele>
        <time>2021-05-20T17:56:02+02:00</time>
      </trkpt>
      <trkpt lat="48.03725" lon="7.01983">
        <ele>1309</ele>
        <time>2021-05-20T17:56:07+02:00</time>
      </trkpt>
      <trkpt lat="48.0373" lon="7.02039">
        <ele>1305</ele>
        <time>2021-05-20T17:56:12+02:00</time>
      </trkpt>
      <trkpt lat="48.03702" lon="7.02167">
        <ele>1290</ele>
        <time>2021-05-20T17:56:17+02:00</time>
      </trkpt>
      <trkpt lat="48.03683" lon="7.02223">
        <ele>1284</ele>
        <time>2021-05-20T17:56:22+02:00</time>
      </trkpt>
      <trkpt lat="48.03646" lon="7.02301">
        <ele>1267</ele>
        <time>2021-05-20T17:56:27+02:00</time>
      </trkpt>
      <trkpt lat="48.0364" lon="7.02352">
        <ele>1261</ele>
        <time>2021-05-20T17:56:32+02:00</time>
      </trkpt>
      <trkpt lat="48.03625" lon="7.02389">
        <ele>1253</ele>
        <time>2021-05-20T17:56:37+02:00</time>
      </trkpt>
      <trkpt lat="48.0362" lon="7.02457">
        <ele>1241</ele>
        <time>2021-05-20T17:56:42+02:00</time>
      </trkpt>
      <trkpt lat="48.0366" lon="7.02536">
        <ele>1231</ele>
        <time>2021-05-20T17:56:47+02:00</time>
      </trkpt>
      <trkpt lat="48.0364" lon="7.02566">
        <ele>1223</ele>
        <time>2021-05-20T17:56:52+02:00</time>
      </trkpt>
      <trkpt lat="48.03635" lon="7.0268">
        <ele>1221</ele>
        <time>2021-05-20T17:56:57+02:00</time>
      </trkpt>
      <trkpt lat="48.03613" lon="7.02767">
        <ele>1231</ele>
        <time>2021-05-20T17:57:02+02:00</time>
      </trkpt>
      <trkpt lat="48.03597" lon="7.02806">
        <ele>1240</ele>
        <time>2021-05-20T17:57:07+02:00</time>
      </trkpt>
      <trkpt lat="48.03572" lon="7.0283">
        <ele>1246</ele>
        <time>2021-05-20T17:57:12+02:00</time>
      </trkpt>
      <trkpt lat="48.03571" lon="7.02858">
        <ele>1252</ele>
        <time>2021-05-20T17:57:17+02:00</time>
      </trkpt>
      <trkpt lat="48.03547" lon="7.02881">
        <ele>1253</ele>
        <time>2021-05-20T17:57:22+02:00</time>
      </trkpt>
      <trkpt lat="48.03549" lon="7.0294">
        <ele>1263</ele>
        <time>2021-05-20T17:57:27+02:00</time>
      </trkpt>
      <trkpt lat="48.03536" lon="7.03041">
        <ele>1273</ele>
        <time>2021-05-20T17:57:32+02:00</time>
      </trkpt>
      <trkpt lat="48.03536" lon="7.0312">
        <ele>1276</ele>
        <time>2021-05-20T17:57:37+02:00</time>
      </trkpt>
      <trkpt lat="48.03553" lon="7.03268">
        <ele>1281</ele>
        <time>2021-05-20T17:57:42+02:00</time>
      </trkpt>
      <trkpt lat="48.03566" lon="7.03471">
        <ele>1273</ele>
        <time>2021-05-20T17:57:47+02:00</time>
      </trkpt>
      <trkpt lat="48.03541" lon="7.03545">
        <ele>1264</ele>
        <time>2021-05-20T17:57:52+02:00</time>
      </trkpt>
      <trkpt lat="48.03521" lon="7.03642">
        <ele>1244</ele>
        <time>2021-05-20T17:57:57+02:00</time>
      </trkpt>
      <trkpt lat="48.03503" lon="7.03706">
        <ele>1229</ele>
        <time>2021-05-20T17:58:02+02:00</time>
      </trkpt>
      <trkpt lat="48.03489" lon="7.03774">
        <ele>1211</ele>
        <time>2021-05-20T17:58:07+02:00</time>
      </trkpt>
      <trkpt lat="48.03494" lon="7.03843">
        <ele>1191</ele>
        <time>2021-05-20T17:58:12+02:00</time>
      </trkpt>
      <trkpt lat="48.03474" lon="7.03895">
        <ele>1170</ele>
        <time>2021-05-20T17:58:17+02:00</time>
      </trkpt>
      <trkpt lat="48.03457" lon="7.04014">
        <ele>1138</ele>
        <time>2021-05-20T17:58:22+02:00</time>
      </trkpt>
      <trkpt lat="48.03452" lon="7.04147">
        <ele>1093</ele>
        <time>2021-05-20T17:58:27+02:00</time>
      </trkpt>
      <trkpt lat="48.03429" lon="7.04194">
        <ele>1081</ele>
        <time>2021-05-20T17:58:32+02:00</time>
      </trkpt>
      <trkpt lat="48.03412" lon="7.04261">
        <ele>1061</ele>
        <time>2021-05-20T17:58:37+02:00</time>
      </trkpt>
      <trkpt lat="48.03408" lon="7.04395">
        <ele>1022</ele>
        <time>2021-05-20T17:58:42+02:00</time>
      </trkpt>
      <trkpt lat="48.03424" lon="7.04499">
        <ele>1000</ele>
        <time>2021-05-20T17:58:47+02:00</time>
      </trkpt>
      <trkpt lat="48.03454" lon="7.04374">
        <ele>1021</ele>
        <time>2021-05-20T17:58:52+02:00</time>
      </trkpt>
      <trkpt lat="48.03519" lon="7.04368">
        <ele>1007</ele>
        <time>2021-05-20T17:58:57+02:00</time>
      </trkpt>
      <trkpt lat="48.03513" lon="7.04437">
        <ele>992</ele>
        <time>2021-05-20T17:59:02+02:00</time>
      </trkpt>
      <trkpt lat="48.03522" lon="7.04478">
        <ele>984</ele>
        <time>2021-05-20T17:59:07+02:00</time>
      </trkpt>
      <trkpt lat="48.03584" lon="7.04528">
        <ele>964</ele>
        <time>2021-05-20T17:59:12+02:00</time>
      </trkpt>
      <trkpt lat="48.03625" lon="7.0457">
        <ele>962</ele>
        <time>2021-05-20T17:59:17+02:00</time>
      </trkpt>
      <trkpt lat="48.03693" lon="7.04612">
        <ele>956</ele>
        <time>2021-05-20T17:59:22+02:00</time>
      </trkpt>
      <trkpt lat="48.03757" lon="7.04672">
        <ele>958</ele>
        <time>2021-05-20T17:59:27+02:00</time>
      </trkpt>
      <trkpt lat="48.03814" lon="7.04717">
        <ele>952</ele>
        <time>2021-05-20T17:59:32+02:00</time>
      </trkpt>
      <trkpt lat="48.03815" lon="7.04647">
        <ele>948</ele>
        <time>2021-05-20T17:59:37+02:00</time>
      </trkpt>
      <trkpt lat="48.03803" lon="7.04604">
        <ele>945</ele>
        <time>2021-05-20T17:59:42+02:00</time>
      </trkpt>
      <trkpt lat="48.03821" lon="7.04557">
        <ele>948</ele>
        <time>2021-05-20T17:59:47+02:00</time>
      </trkpt>
      <trkpt lat="48.03838" lon="7.04538">
        <ele>953</ele>
        <time>2021-05-20T17:59:52+02:00</time>
      </trkpt>
      <trkpt lat="48.03923" lon="7.04578">
        <ele>954</ele>
        <time>2021-05-20T17:59:57+02:00</time>
      </trkpt>
      <trkpt lat="48.03967" lon="7.04614">
        <ele>952</ele>
        <time>2021-05-20T18:00:02+02:00</time>
      </trkpt>
      <trkpt lat="48.03987" lon="7.04562">
        <ele>962</ele>
        <time>2021-05-20T18:00:07+02:00</time>
      </trkpt>
      <trkpt lat="48.04009" lon="7.04509">
        <ele>970</ele>
        <time>2021-05-20T18:00:12+02:00</time>
      </trkpt>
      <trkpt lat="48.04039" lon="7.04431">
        <ele>978</ele>
        <time>2021-05-20T18:00:17+02:00</time>
      </trkpt>
      <trkpt lat="48.04043" lon="7.04359">
        <ele>988</ele>
        <time>2021-05-20T18:00:22+02:00</time>
      </trkpt>
      <trkpt lat="48.04083" lon="7.04316">
        <ele>987</ele>
        <time>2021-05-20T18:00:27+02:00</time>
      </trkpt>
      <trkpt lat="48.04125" lon="7.04303">
        <ele>991</ele>
        <time>2021-05-20T18:00:32+02:00</time>
      </trkpt>
      <trkpt lat="48.04196" lon="7.04328">
        <ele>988</ele>
        <time>2021-05-20T18:00:37+02:00</time>
      </trkpt>
      <trkpt lat="48.04264" lon="7.04339">
        <ele>989</ele>
        <time>2021-05-20T18:00:42+02:00</time>
      </trkpt>
      <trkpt lat="48.04318" lon="7.04347">
        <ele>987</ele>
        <time>2021-05-20T18:00:47+02:00</time>
      </trkpt>
      <trkpt lat="48.04366" lon="7.04327">
        <ele>989</ele>
        <time>2021-05-20T18:00:52+02:00</time>
      </trkpt>
      <trkpt lat="48.04403" lon="7.04293">
        <ele>992</ele>
        <time>2021-05-20T18:00:57+02:00</time>
      </trkpt>
      <trkpt lat="48.04428" lon="7.04229">
        <ele>992</ele>
        <time>2021-05-20T18:01:02+02:00</time>
      </trkpt>
      <trkpt lat="48.04437" lon="7.04147">
        <ele>995</ele>
        <time>2021-05-20T18:01:07+02:00</time>
      </trkpt>
      <trkpt lat="48.0444" lon="7.04082">
        <ele>996</ele>
        <time>2021-05-20T18:01:12+02:00</time>
      </trkpt>
      <trkpt lat="48.04402" lon="7.03992">
        <ele>1003</ele>
        <time>2021-05-20T18:01:17+02:00</time>
      </trkpt>
      <trkpt lat="48.04354" lon="7.03927">
        <ele>1009</ele>
        <time>2021-05-20T18:01:22+02:00</time>
      </trkpt>
      <trkpt lat="48.04303" lon="7.03848">
        <ele>1017</ele>
        <time>2021-05-20T18:01:27+02:00</time>
      </trkpt>
      <trkpt lat="48.04267" lon="7.03789">
        <ele>1020</ele>
        <time>2021-05-20T18:01:32+02:00</time>
      </trkpt>
      <trkpt lat="48.04235" lon="7.03722">
        <ele>1019</ele>
        <time>2021-05-20T18:01:37+02:00</time>
      </trkpt>
      <trkpt lat="48.04182" lon="7.03634">
        <ele>1026</ele>
        <time>2021-05-20T18:01:42+02:00</time>
      </trkpt>
      <trkpt lat="48.04137" lon="7.03567">
        <ele>1035</ele>
        <time>2021-05-20T18:01:47+02:00</time>
      </trkpt>
      <trkpt lat="48.04097" lon="7.03481">
        <ele>1035</ele>
        <time>2021-05-20T18:01:52+02:00</time>
      </trkpt>
      <trkpt lat="48.04054" lon="7.03382">
        <ele>1039</ele>
        <time>2021-05-20T18:01:57+02:00</time>
      </trkpt>
      <trkpt lat="48.0401" lon="7.0329">
        <ele>1039</ele>
        <time>2021-05-20T18:02:02+02:00</time>
      </trkpt>
      <trkpt lat="48.03961" lon="7.03225">
        <ele>1042</ele>
        <time>2021-05-20T18:02:07+02:00</time>
      </trkpt>
      <trkpt lat="48.03928" lon="7.03183">
        <ele>1046</ele>
        <time>2021-05-20T18:02:12+02:00</time>
      </trkpt>
      <trkpt lat="48.03902" lon="7.03138">
        <ele>1056</ele>
        <time>2021-05-20T18:02:17+02:00</time>
      </trkpt>
      <trkpt lat="48.03917" lon="7.03078">
        <ele>1046</ele>
        <time>2021-05-20T18:02:22+02:00</time>
      </trkpt>
      <trkpt lat="48.03963" lon="7.03028">
        <ele>1039</ele>
        <time>2021-05-20T18:02:27+02:00</time>
      </trkpt>
      <trkpt lat="48.04011" lon="7.02968">
        <ele>1035</ele>
        <time>2021-05-20T18:02:32+02:00</time>
      </trkpt>
      <trkpt lat="48.04035" lon="7.02921">
        <ele>1027</ele>
        <time>2021-05-20T18:02:37+02:00</time>
      </trkpt>
      <trkpt lat="48.04046" lon="7.02856">
        <ele>1031</ele>
        <time>2021-05-20T18:02:42+02:00</time>
      </trkpt>
      <trkpt lat="48.04053" lon="7.02785">
        <ele>1030</ele>
        <time>2021-05-20T18:02:47+02:00</time>
      </trkpt>
      <trkpt lat="48.04044" lon="7.02719">
        <ele>1035</ele>
        <time>2021-05-20T18:02:52+02:00</time>
      </trkpt>
      <trkpt lat="48.04034" lon="7.02646">
        <ele>1039</ele>
        <time>2021-05-20T18:02:57+02:00</time>
      </trkpt>
      <trkpt lat="48.0407" lon="7.02606">
        <ele>1017</ele>
        <time>2021-05-20T18:03:02+02:00</time>
      </trkpt>
      <trkpt lat="48.04124" lon="7.02552">
        <ele>1000</ele>
        <time>2021-05-20T18:03:07+02:00</time>
      </trkpt>
      <trkpt lat="48.04173" lon="7.02494">
        <ele>996</ele>
        <time>2021-05-20T18:03:12+02:00</time>
      </trkpt>
      <trkpt lat="48.04212" lon="7.02435">
        <ele>1012</ele>
        <time>2021-05-20T18:03:17+02:00</time>
      </trkpt>
      <trkpt lat="48.04187" lon="7.02298">
        <ele>1051</ele>
        <time>2021-05-20T18:03:22+02:00</time>
      </trkpt>
      <trkpt lat="48.04199" lon="7.02281">
        <ele>1044</ele>
        <time>2021-05-20T18:03:27+02:00</time>
      </trkpt>
      <trkpt lat="48.04217" lon="7.02281">
        <ele>1036</ele>
        <time>2021-05-20T18:03:32+02:00</time>
      </trkpt>
      <trkpt lat="48.0425" lon="7.02233">
        <ele>1023</ele>
        <time>2021-05-20T18:03:37+02:00</time>
      </trkpt>
      <trkpt lat="48.04269" lon="7.02188">
        <ele>1027</ele>
        <time>2021-05-20T18:03:42+02:00</time>
      </trkpt>
      <trkpt lat="48.04304" lon="7.02164">
        <ele>1030</ele>
        <time>2021-05-20T18:03:47+02:00</time>
      </trkpt>
      <trkpt lat="48.04341" lon="7.0214">
        <ele>1032</ele>
        <time>2021-05-20T18:03:52+02:00</time>
      </trkpt>
      <trkpt lat="48.0438" lon="7.02129">
        <ele>1028</ele>
        <time>2021-05-20T18:03:57+02:00</time>
      </trkpt>
      <trkpt lat="48.04442" lon="7.02108">
        <ele>1025</ele>
        <time>2021-05-20T18:04:02+02:00</time>
      </trkpt>
      <trkpt lat="48.04445" lon="7.02066">
        <ele>1029</ele>
        <time>2021-05-20T18:04:07+02:00</time>
      </trkpt>
      <trkpt lat="48.04444" lon="7.02025">
        <ele>1032</ele>
        <time>2021-05-20T18:04:12+02:00</time>
      </trkpt>
      <trkpt lat="48.04442" lon="7.01982">
        <ele>1033</ele>
        <time>2021-05-20T18:04:17+02:00</time>
      </trkpt>
      <trkpt lat="48.04414" lon="7.01947">
        <ele>1032</ele>
        <time>2021-05-20T18:04:22+02:00</time>
      </trkpt>
      <trkpt lat="48.04395" lon="7.01917">
        <ele>1038</ele>
        <time>2021-05-20T18:04:27+02:00</time>
      </trkpt>
      <trkpt lat="48.04386" lon="7.01844">
        <ele>1039</ele>
        <time>2021-05-20T18:04:32+02:00</time>
      </trkpt>
      <trkpt lat="48.04381" lon="7.01828">
        <ele>1040</ele>
        <time>2021-05-20T18:04:37+02:00</time>
      </trkpt>
      <trkpt lat="48.04386" lon="7.01789">
        <ele>1040</ele>
        <time>2021-05-20T18:04:42+02:00</time>
      </trkpt>
      <trkpt lat="48.04372" lon="7.01751">
        <ele>1045</ele>
        <time>2021-05-20T18:04:47+02:00</time>
      </trkpt>
      <trkpt lat="48.04373" lon="7.01696">
        <ele>1052</ele>
        <time>2021-05-20T18:04:52+02:00</time>
      </trkpt>
      <trkpt lat="48.0435" lon="7.01643">
        <ele>1063</ele>
        <time>2021-05-20T18:04:57+02:00</time>
      </trkpt>
      <trkpt lat="48.04326" lon="7.01612">
        <ele>1076</ele>
        <time>2021-05-20T18:05:02+02:00</time>
      </trkpt>
      <trkpt lat="48.0431" lon="7.01568">
        <ele>1097</ele>
        <time>2021-05-20T18:05:07+02:00</time>
      </trkpt>
      <trkpt lat="48.0431" lon="7.01548">
        <ele>1102</ele>
        <time>2021-05-20T18:05:12+02:00</time>
      </trkpt>
      <trkpt lat="48.04298" lon="7.01539">
        <ele>1108</ele>
        <time>2021-05-20T18:05:17+02:00</time>
      </trkpt>
      <trkpt lat="48.04304" lon="7.01497">
        <ele>1115</ele>
        <time>2021-05-20T18:05:22+02:00</time>
      </trkpt>
      <trkpt lat="48.04285" lon="7.01479">
        <ele>1126</ele>
        <time>2021-05-20T18:05:27+02:00</time>
      </trkpt>
      <trkpt lat="48.04271" lon="7.01483">
        <ele>1127</ele>
        <time>2021-05-20T18:05:32+02:00</time>
      </trkpt>
      <trkpt lat="48.0427" lon="7.01444">
        <ele>1138</ele>
        <time>2021-05-20T18:05:37+02:00</time>
      </trkpt>
      <trkpt lat="48.04275" lon="7.01417">
        <ele>1146</ele>
        <time>2021-05-20T18:05:42+02:00</time>
      </trkpt>
      <trkpt lat="48.04236" lon="7.01396">
        <ele>1171</ele>
        <time>2021-05-20T18:05:47+02:00</time>
      </trkpt>
      <trkpt lat="48.04251" lon="7.0135">
        <ele>1188</ele>
        <time>2021-05-20T18:05:52+02:00</time>
      </trkpt>
      <trkpt lat="48.04233" lon="7.01337">
        <ele>1208</ele>
        <time>2021-05-20T18:05:57+02:00</time>
      </trkpt>
      <trkpt lat="48.04252" lon="7.01305">
        <ele>1214</ele>
        <time>2021-05-20T18:06:02+02:00</time>
      </trkpt>
      <trkpt lat="48.04221" lon="7.01282">
        <ele>1239</ele>
        <time>2021-05-20T18:06:07+02:00</time>
      </trkpt>
      <trkpt lat="48.04219" lon="7.01272">
        <ele>1243</ele>
        <time>2021-05-20T18:06:12+02:00</time>
      </trkpt>
      <trkpt lat="48.04196" lon="7.01268">
        <ele>1253</ele>
        <time>2021-05-20T18:06:17+02:00</time>
      </trkpt>
      <trkpt lat="48.042" lon="7.01226">
        <ele>1265</ele>
        <time>2021-05-20T18:06:22+02:00</time>
      </trkpt>
      <trkpt lat="48.04175" lon="7.01237">
        <ele>1268</ele>
        <time>2021-05-20T18:06:27+02:00</time>
      </trkpt>
      <trkpt lat="48.04177" lon="7.01192">
        <ele>1278</ele>
        <time>2021-05-20T18:06:32+02:00</time>
      </trkpt>
      <trkpt lat="48.04201" lon="7.01169">
        <ele>1283</ele>
        <time>2021-05-20T18:06:37+02:00</time>
      </trkpt>
      <trkpt lat="48.04184" lon="7.01157">
        <ele>1286</ele>
        <time>2021-05-20T18:06:42+02:00</time>
      </trkpt>
      <trkpt lat="48.0417" lon="7.0111">
        <ele>1291</ele>
        <time>2021-05-20T18:06:47+02:00</time>
      </trkpt>
      <trkpt lat="48.04139" lon="7.01092">
        <ele>1293</ele>
        <time>2021-05-20T18:06:52+02:00</time>
      </trkpt>
      <trkpt lat="48.04219" lon="7.01022">
        <ele>1297</ele>
        <time>2021-05-20T18:06:57+02:00</time>
      </trkpt>
      <trkpt lat="48.04291" lon="7.00964">
        <ele>1299</ele>
        <time>2021-05-20T18:07:02+02:00</time>
      </trkpt>
      <trkpt lat="48.04492" lon="7.01028">
        <ele>1279</ele>
        <time>2021-05-20T18:07:07+02:00</time>
      </trkpt>
      <trkpt lat="48.04586" lon="7.01062">
        <ele>1274</ele>
        <time>2021-05-20T18:07:12+02:00</time>
      </trkpt>
      <trkpt lat="48.04696" lon="7.01103">
        <ele>1270</ele>
        <time>2021-05-20T18:07:17+02:00</time>
      </trkpt>
      <trkpt lat="48.04841" lon="7.01154">
        <ele>1257</ele>
        <time>2021-05-20T18:07:22+02:00</time>
      </trkpt>
      <trkpt lat="48.04877" lon="7.01168">
        <ele>1255</ele>
        <time>2021-05-20T18:07:27+02:00</time>
      </trkpt>
      <trkpt lat="48.04918" lon="7.01165">
        <ele>1252</ele>
        <time>2021-05-20T18:07:32+02:00</time>
      </trkpt>
      <trkpt lat="48.04933" lon="7.01124">
        <ele>1248</ele>
        <time>2021-05-20T18:07:37+02:00</time>
      </trkpt>
      <trkpt lat="48.04938" lon="7.01064">
        <ele>1242</ele>
        <time>2021-05-20T18:07:42+02:00</time>
      </trkpt>
      <trkpt lat="48.04936" lon="7.01026">
        <ele>1237</ele>
        <time>2021-05-20T18:07:47+02:00</time>
      </trkpt>
      <trkpt lat="48.04939" lon="7.00997">
        <ele>1233</ele>
        <time>2021-05-20T18:07:52+02:00</time>
      </trkpt>
      <trkpt lat="48.04942" lon="7.00981">
        <ele>1230</ele>
        <time>2021-05-20T18:07:57+02:00</time>
      </trkpt>
      <trkpt lat="48.04947" lon="7.00947">
        <ele>1224</ele>
        <time>2021-05-20T18:08:02+02:00</time>
      </trkpt>
      <trkpt lat="48.04926" lon="7.00941">
        <ele>1224</ele>
        <time>2021-05-20T18:08:07+02:00</time>
      </trkpt>
      <trkpt lat="48.04927" lon="7.00918">
        <ele>1220</ele>
        <time>2021-05-20T18:08:12+02:00</time>
      </trkpt>
      <trkpt lat="48.04938" lon="7.00849">
        <ele>1206</ele>
        <time>2021-05-20T18:08:17+02:00</time>
      </trkpt>
      <trkpt lat="48.04946" lon="7.00774">
        <ele>1192</ele>
        <time>2021-05-20T18:08:22+02:00</time>
      </trkpt>
      <trkpt lat="48.04959" lon="7.00729">
        <ele>1181</ele>
        <time>2021-05-20T18:08:27+02:00</time>
      </trkpt>
      <trkpt lat="48.04966" lon="7.00692">
        <ele>1172</ele>
        <time>2021-05-20T18:08:32+02:00</time>
      </trkpt>
      <trkpt lat="48.04984" lon="7.00584">
        <ele>1144</ele>
        <time>2021-05-20T18:08:37+02:00</time>
      </trkpt>
      <trkpt lat="48.04993" lon="7.00529">
        <ele>1130</ele>
        <time>2021-05-20T18:08:42+02:00</time>
      </trkpt>
      <trkpt lat="48.05003" lon="7.00471">
        <ele>1116</ele>
        <time>2021-05-20T18:08:47+02:00</time>
      </trkpt>
      <trkpt lat="48.0502" lon="7.00386">
        <ele>1098</ele>
        <time>2021-05-20T18:08:52+02:00</time>
      </trkpt>
      <trkpt lat="48.05029" lon="7.0034">
        <ele>1089</ele>
        <time>2021-05-20T18:08:57+02:00</time>
      </trkpt>
      <trkpt lat="48.05048" lon="7.00304">
        <ele>1084</ele>
        <time>2021-05-20T18:09:02+02:00</time>
      </trkpt>
      <trkpt lat="48.05039" lon="7.00209">
        <ele>1070</ele>
        <time>2021-05-20T18:09:07+02:00</time>
      </trkpt>
      <trkpt lat="48.05038" lon="7.00156">
        <ele>1065</ele>
        <time>2021-05-20T18:09:12+02:00</time>
      </trkpt>
      <trkpt lat="48.05046" lon="7.00136">
        <ele>1064</ele>
        <time>2021-05-20T18:09:17+02:00</time>
      </trkpt>
      <trkpt lat="48.0504" lon="7.00104">
        <ele>1062</ele>
        <time>2021-05-20T18:09:22+02:00</time>
      </trkpt>
      <trkpt lat="48.05034" lon="7.00026">
        <ele>1054</ele>
        <time>2021-05-20T18:09:27+02:00</time>
      </trkpt>
      <trkpt lat="48.05034" lon="6.99914">
        <ele>1038</ele>
        <time>2021-05-20T18:09:32+02:00</time>
      </trkpt>
      <trkpt lat="48.05066" lon="6.99867">
        <ele>1029</ele>
        <time>2021-05-20T18:09:37+02:00</time>
      </trkpt>
      <trkpt lat="48.05072" lon="6.99819">
        <ele>1020</ele>
        <time>2021-05-20T18:09:42+02:00</time>
      </trkpt>
      <trkpt lat="48.05089" lon="6.99782">
        <ele>1012</ele>
        <time>2021-05-20T18:09:47+02:00</time>
      </trkpt>
      <trkpt lat="48.05048" lon="6.99746">
        <ele>1003</ele>
        <time>2021-05-20T18:09:52+02:00</time>
      </trkpt>
      <trkpt lat="48.05064" lon="6.99669">
        <ele>989</ele>
        <time>2021-05-20T18:09:57+02:00</time>
      </trkpt>
      <trkpt lat="48.05049" lon="6.99658">
        <ele>987</ele>
        <time>2021-05-20T18:10:02+02:00</time>
      </trkpt>
      <trkpt lat="48.05046" lon="6.99644">
        <ele>985</ele>
        <time>2021-05-20T18:10:07+02:00</time>
      </trkpt>
      <trkpt lat="48.05059" lon="6.99635">
        <ele>984</ele>
        <time>2021-05-20T18:10:12+02:00</time>
      </trkpt>
      <trkpt lat="48.05076" lon="6.9957">
        <ele>976</ele>
        <time>2021-05-20T18:10:17+02:00</time>
      </trkpt>
      <trkpt lat="48.05094" lon="6.99551">
        <ele>972</ele>
        <time>2021-05-20T18:10:22+02:00</time>
      </trkpt>
      <trkpt lat="48.05116" lon="6.99525">
        <ele>964</ele>
        <time>2021-05-20T18:10:27+02:00</time>
      </trkpt>
      <trkpt lat="48.05143" lon="6.99573">
        <ele>961</ele>
        <time>2021-05-20T18:10:32+02:00</time>
      </trkpt>
      <trkpt lat="48.05156" lon="6.99578">
        <ele>958</ele>
        <time>2021-05-20T18:10:37+02:00</time>
      </trkpt>
      <trkpt lat="48.05212" lon="6.99552">
        <ele>950</ele>
        <time>2021-05-20T18:10:42+02:00</time>
      </trkpt>
      <trkpt lat="48.05251" lon="6.99495">
        <ele>930</ele>
        <time>2021-05-20T18:10:47+02:00</time>
      </trkpt>
      <trkpt lat="48.05285" lon="6.99438">
        <ele>927</ele>
        <time>2021-05-20T18:10:52+02:00</time>
      </trkpt>
      <trkpt lat="48.05305" lon="6.99377">
        <ele>916</ele>
        <time>2021-05-20T18:10:57+02:00</time>
      </trkpt>
      <trkpt lat="48.0534" lon="6.99311">
        <ele>900</ele>
        <time>2021-05-20T18:11:02+02:00</time>
      </trkpt>
      <trkpt lat="48.05374" lon="6.99279">
        <ele>897</ele>
        <time>2021-05-20T18:11:07+02:00</time>
      </trkpt>
      <trkpt lat="48.05351" lon="6.99182">
        <ele>876</ele>
        <time>2021-05-20T18:11:12+02:00</time>
      </trkpt>
      <trkpt lat="48.05359" lon="6.99064">
        <ele>855</ele>
        <time>2021-05-20T18:11:17+02:00</time>
      </trkpt>
      <trkpt lat="48.0534" lon="6.9906">
        <ele>851</ele>
        <time>2021-05-20T18:11:22+02:00</time>
      </trkpt>
      <trkpt lat="48.0533" lon="6.99089">
        <ele>857</ele>
        <time>2021-05-20T18:11:27+02:00</time>
      </trkpt>
      <trkpt lat="48.05318" lon="6.9908">
        <ele>856</ele>
        <time>2021-05-20T18:11:32+02:00</time>
      </trkpt>
      <trkpt lat="48.05309" lon="6.99013">
        <ele>840</ele>
        <time>2021-05-20T18:11:37+02:00</time>
      </trkpt>
      <trkpt lat="48.05284" lon="6.98954">
        <ele>829</ele>
        <time>2021-05-20T18:11:42+02:00</time>
      </trkpt>
      <trkpt lat="48.0528" lon="6.98902">
        <ele>822</ele>
        <time>2021-05-20T18:11:47+02:00</time>
      </trkpt>
    </trkseg>
  </trk>
</gpx>